Historyczne dane pomiarowe

Dodano dane terminowe – wersja testowa.

Dane z okresu 1951-2019

Wersja bazy: 1.34 [2019-03-16, lista zmian], aktualizacja planowana na 2019-04-15

Dane meteo z obszaru Polski uzyskane na podstawie danych udostępnionych przez Instytut Meteorologii i Gospodarki Wodnej – Państwowy Instytut Badawczy.

 

Wybierz Datę:    

       

TemperaturaWilgotnośćWiatrCiśnienieOpadyŚniegCzas trwania zjawisk
 Stacja t tx tn tng RH VA  wxwx mslp ppp RRR   cm mm wxwxwxwxwxwxwx
2019-06-19 20.9 27.3 13.2 13.0 83.3- 6.7 2.0---- 7.0------------
2019-06-18 20.5 24.7 15.5 15.3 78.0- 6.3 1.7---- 0.0------------
2019-06-17 20.1 25.6 17.1 16.4 82.0- 7.0 3.0---- 0.1------------
2019-06-16 23.9 30.9 15.1 14.1 74.0- 4.3 2.7---- 4.1------------
2019-06-15 23.7 31.4 14.5 13.3 64.3- 2.7 2.0---- 0.0------------
2019-06-14 23.8 30.3 16.3 13.4 74.3- 5.3 2.0---- 0.1------------
2019-06-13 22.7 30.0 12.3 10.5 68.3- 2.0 3.0---- 0.0------------
2019-06-12 22.5 29.8 12.7 11.8 72.0- 3.3 3.0---- 0.0------------
2019-06-11 22.9 29.4 14.2 13.2 68.3- 4.7 3.3---- 0.0------------
2019-06-10 21.5 28.4 11.3 10.5 74.3- 2.3 2.3---- 0.0------------
2019-06-09 20.8 24.7 17.1 17.1 78.8- 6.3 2.0---- 0.0------------
2019-06-08 20.7 27.6 11.6 10.7 76.3- 5.3 1.3---- 0.0------------
2019-06-07 19.0 25.2 10.8 10.7 80.5- 6.0 2.7---- 0.0------------
2019-06-06 19.1 25.3 12.9 10.9 79.0- 6.7 3.3---- 0.4------------
2019-06-05 19.9 25.3 11.8 10.4 70.0- 5.7 3.3---- 0.0------------
2019-06-04 20.6 26.1 11.3 8.9 72.0- 6.0 2.0---- 0.0------------
2019-06-03 20.0 26.2 9.8 8.9 65.0- 3.3 1.7---- 0.0------------
2019-06-02 18.8 25.5 9.8 7.9 68.3- 5.0 1.3---- 0.0------------
2019-06-01 16.4 23.7 6.3 5.0 74.3- 5.7 1.7---- 0.0------------
2019-05-31 17.0 21.0 12.3 12.4 74.5- 5.0 1.7---- 0.0------------
2019-05-30 13.7 15.7 11.3 11.8 86.8- 8.0 1.7---- 1.9------------
2019-05-29 15.5 20.6 11.3 9.7 81.8- 7.3 4.3---- 1.0------------
2019-05-28 19.6 24.7 15.1 13.2 81.3- 6.3 4.3---- 0.0------------
2019-05-27 18.0 25.1 10.2 8.4 76.3- 6.0 2.0---- 1.5------------
2019-05-26 15.3 22.4 6.9 5.5 84.5- 7.0 2.0---- 0.0------------
2019-05-25 16.0 20.8 12.7 12.6 84.5- 7.3 2.7---- 0.7------------
2019-05-24 15.0 18.6 11.2 9.4 89.5- 7.7 2.3---- 3.0------------
2019-05-23 15.1 19.1 12.3 12.3 87.8- 6.7 1.7---- 5.0------------
2019-05-22 14.9 18.1 11.2 10.4 82.5- 7.0 4.0---- 3.0------------
2019-05-21 13.2 14.7 11.8 11.4 95.8- 8.0 3.7---- 35.5------------
2019-05-20 18.1 23.7 14.2 14.1 82.8- 7.0 3.3---- 20.5------------
2019-05-19 18.9 24.5 13.7 13.3 81.3- 6.3 3.3---- 0.0------------
2019-05-18 16.8 23.7 10.8 9.4 84.8- 7.3 1.3---- 2.2------------
2019-05-17 15.8 21.6 11.3 10.6 86.3- 7.0 1.7---- 0.3------------
2019-05-16 13.8 16.7 11.3 10.4 90.5- 8.0 2.3---- 1.0------------
2019-05-15 12.5 16.2 8.4 8.4 93.8- 7.7 1.7---- 1.1------------
2019-05-14 7.3 9.3 5.1 5.5 95.8- 8.0 1.7---- 6.6------------
2019-05-13 11.2 17.4 8.5 8.5 88.3- 8.0 4.7---- 1.4------------
2019-05-12 13.7 21.2 3.1 2.1 71.3- 5.7 2.0---- 0.0------------
2019-05-11 11.9 17.6 5.9 3.6 83.5- 6.3 2.3---- 0.0------------
2019-05-10 12.0 15.7 8.3 8.4 83.3- 7.0 2.3---- 0.0------------
2019-05-09 9.8 16.8 1.2 -1.4 66.5- 5.3 2.7---- 1.0------------
2019-05-08 7.6 14.2 0.5 -1.5 68.0- 5.0 2.0---- 0.0------------
2019-05-07 8.6 13.2 4.4 3.6 68.3- 7.3 3.7---- 0.0------------
2019-05-06 5.6 7.9 4.3 4.0 92.5- 8.0 3.7---- 10.0------------
2019-05-05 9.0 11.0 7.4 7.5 96.0- 8.0 2.7---- 14.4------------
2019-05-04 8.9 13.1 3.9 2.1 84.8- 7.0 1.7---- 1.9------------
2019-05-03 10.3 14.7 6.9 4.0 90.3- 7.3 2.7---- 6.6------------
2019-05-02 11.9 18.0 5.4 3.5 74.3- 7.0 5.3---- 0.9------------
2019-05-01 11.3 16.2 8.3 8.4 72.8- 7.0 3.3---- 0.1------------
2019-04-30 10.9 12.6 9.3 9.4 91.3- 8.0 3.7---- 0.7------------
2019-04-29 10.9 12.3 9.6 10.1 97.8- 8.0 2.0---- 20.4------------
2019-04-28 12.0 16.2 10.3 10.1 95.3- 8.0 3.7---- 17.8------------
2019-04-27 15.8 22.6 7.7 5.6 68.3- 7.0 3.3---- 6.4------------
2019-04-26 18.1 26.2 7.7 4.2 54.8- 5.3 4.0---- 0.0------------
2019-04-25 15.5 23.7 8.2 6.8 63.8- 6.3 4.3---- 0.0------------
2019-04-24 13.7 18.2 8.6 7.5 55.8- 7.3 5.3---- 0.0------------
2019-04-23 12.4 18.1 6.1 4.8 44.5- 3.3 6.3---- 0.0------------
2019-04-22 10.4 15.7 4.9 4.0 67.0- 4.7 4.7---- 0.0------------
2019-04-21 8.3 15.2 2.3 1.1 72.8- 7.7 2.0---- 3.3------------
292.9 ms

 

Źródłem pochodzenia danych jest Instytut Meteorologii i Gospodarki Wodnej – Państwowy Instytut Badawczy. Dane Instytutu Meteorologii i Gospodarki Wodnej – Państwowego Instytutu Badawczego zostały przetworzone.

Dane źródłowe można odnaleźć na stronie https://dane.imgw.pl